Hav Tind — OZ2071 — position and weather

sailwx.info

Track history (hours):
 
Tides and Currents Weather Stations Pressure Air Temp Water Temp Dewpoint Dewpoint Depression Visibility Wind Speed Wind Dir Waves Ship Positions

Hav Tind

Last reported at 2015-Jan-28 08:32 UTC. Time now 2015-Jan-28 09:15 UTC.
Position N 62°14' W 006°48'.

Length 60 m; draft 4 m.

Type: Cargo ship. MMSI: 231565000.

Date/timePositionNaut miles runAvg speedWind from/ knotsBaromVisibWave heightAir tempDewpointWater temp
2015-Jan-28 08:32N 62°14' W 006°48'0 0.0
2015-Jan-28 07:32N 62°14' W 006°48'0 0.0
2015-Jan-28 06:32N 62°14' W 006°48'0 0.0
2015-Jan-28 05:29N 62°14' W 006°48'0 0.0
2015-Jan-28 04:26N 62°14' W 006°48'0 0.0
2015-Jan-28 03:29N 62°14' W 006°48'0 0.0
2015-Jan-28 02:32N 62°14' W 006°48'0 0.0
2015-Jan-28 01:32N 62°14' W 006°48'0 0.0
2015-Jan-28 00:32N 62°14' W 006°48'0 0.0
2015-Jan-27 23:32N 62°14' W 006°48'0 0.0
2015-Jan-27 22:32N 62°14' W 006°48'0 0.0
2015-Jan-27 21:32N 62°14' W 006°48'0 0.0
2015-Jan-27 20:32N 62°14' W 006°48'0 0.0
2015-Jan-27 19:32N 62°14' W 006°48'0 0.0
2015-Jan-27 18:32N 62°14' W 006°48'4 4.1
2015-Jan-27 17:33N 62°13' W 006°40'7 6.8
2015-Jan-27 16:33N 62°11' W 006°27'3 0.4
2015-Jan-27 09:33N 62°10' W 006°33'7 7.3
2015-Jan-27 08:33N 62°14' W 006°47'1 1.0
2015-Jan-27 07:32N 62°14' W 006°48'0 0.0
2015-Jan-27 06:32N 62°14' W 006°48'0 0.0
2015-Jan-27 05:32N 62°14' W 006°48'0 0.0
2015-Jan-27 04:32N 62°14' W 006°48'0 0.0
2015-Jan-27 03:32N 62°14' W 006°48'0 0.0
2015-Jan-27 02:29N 62°14' W 006°48'0 0.0
2015-Jan-27 01:32N 62°14' W 006°48'0 0.0
2015-Jan-27 00:32N 62°14' W 006°48'0 0.0
2015-Jan-26 23:26N 62°14' W 006°48'0 0.0
2015-Jan-26 22:32N 62°14' W 006°48'0 0.0
2015-Jan-26 21:32N 62°14' W 006°48'0 0.0
2015-Jan-26 20:32N 62°14' W 006°48'0 0.0
2015-Jan-26 19:32N 62°14' W 006°48'0 0.0
2015-Jan-26 18:32N 62°14' W 006°48'0 0.0
2015-Jan-26 17:32N 62°14' W 006°48'0 0.0
2015-Jan-26 16:32N 62°14' W 006°48'0 0.0
2015-Jan-26 15:32N 62°14' W 006°48'0 0.0
2015-Jan-26 14:32N 62°14' W 006°48'0 0.2
2015-Jan-26 13:28N 62°14' W 006°48'0 0.0
2015-Jan-26 12:31N 62°14' W 006°48'0 0.4
2015-Jan-26 11:33N 62°14' W 006°48'2 1.2
2015-Jan-26 09:33N 62°13' W 006°43'3 2.4
2015-Jan-26 08:25N 62°14' W 006°48'0 0.0
2015-Jan-26 07:31N 62°14' W 006°48'0 0.0
2015-Jan-26 06:31N 62°14' W 006°48'0 0.0
2015-Jan-26 05:28N 62°14' W 006°48'0 0.0
2015-Jan-26 04:31N 62°14' W 006°48'0 0.0
2015-Jan-26 03:31N 62°14' W 006°48'0 0.0
2015-Jan-26 02:31N 62°14' W 006°48'0 0.0
2015-Jan-26 01:22N 62°14' W 006°48'0 0.0
2015-Jan-26 00:31N 62°14' W 006°48'0 0.0
2015-Jan-25 23:25N 62°14' W 006°48'0 0.0
2015-Jan-25 22:31N 62°14' W 006°48'0 0.0
2015-Jan-25 21:31N 62°14' W 006°48'0 0.0
2015-Jan-25 20:25N 62°14' W 006°48'0 0.0
2015-Jan-25 19:28N 62°14' W 006°48'0 0.0
2015-Jan-25 18:31N 62°14' W 006°48'0 0.0
2015-Jan-25 17:31N 62°14' W 006°48'0 0.0
2015-Jan-25 16:25N 62°14' W 006°48'0 0.0
2015-Jan-25 15:31N 62°14' W 006°48'0 0.0
2015-Jan-25 14:31N 62°14' W 006°48'0 0.0
2015-Jan-25 13:28N 62°14' W 006°48'0 0.0
2015-Jan-25 12:31N 62°14' W 006°48'0 0.0
2015-Jan-25 11:31N 62°14' W 006°48'0 0.0
2015-Jan-25 10:31N 62°14' W 006°48'0 0.0
2015-Jan-25 09:31N 62°14' W 006°48'0 0.0
2015-Jan-25 08:31N 62°14' W 006°48'0 0.0
2015-Jan-25 07:31N 62°14' W 006°48'0 0.0
2015-Jan-25 06:25N 62°14' W 006°48'0 0.0
2015-Jan-25 05:31N 62°14' W 006°48'0 0.0
2015-Jan-25 04:31N 62°14' W 006°48'0 0.0
2015-Jan-25 03:31N 62°14' W 006°48'0 0.0
2015-Jan-25 02:31N 62°14' W 006°48'0 0.0
2015-Jan-25 01:31N 62°14' W 006°48'0 0.0
2015-Jan-25 00:31N 62°14' W 006°48'0 0.0
2015-Jan-24 23:31N 62°14' W 006°48'0 0.0
2015-Jan-24 22:31N 62°14' W 006°48'0 0.0
2015-Jan-24 21:28N 62°14' W 006°48'0 0.0
2015-Jan-24 20:31N 62°14' W 006°48'0 0.0
2015-Jan-24 19:31N 62°14' W 006°48'0 0.0
2015-Jan-24 18:31N 62°14' W 006°48'0 0.0
2015-Jan-24 17:31N 62°14' W 006°48'0 0.0
2015-Jan-24 16:25N 62°14' W 006°48'0 0.0
2015-Jan-24 15:31N 62°14' W 006°48'0 0.0
2015-Jan-24 14:31N 62°14' W 006°48'0 0.0
2015-Jan-24 13:28N 62°14' W 006°48'0 0.0
2015-Jan-24 12:22N 62°14' W 006°48'0 0.0
2015-Jan-24 11:31N 62°14' W 006°48'0 0.0
2015-Jan-24 10:31N 62°14' W 006°48'0 0.0
2015-Jan-24 09:31N 62°14' W 006°48'0 0.0
2015-Jan-24 08:31N 62°14' W 006°48'0 0.0
2015-Jan-24 07:31N 62°14' W 006°48'0 0.0
2015-Jan-24 06:31N 62°14' W 006°48'0 0.0
2015-Jan-24 05:31N 62°14' W 006°48'0 0.0
2015-Jan-24 04:31N 62°14' W 006°48'0 0.0
2015-Jan-24 03:31N 62°14' W 006°48'0 0.0
2015-Jan-24 02:31N 62°14' W 006°48'0 0.0
2015-Jan-24 01:31N 62°14' W 006°48'0 0.0
2015-Jan-24 00:31N 62°14' W 006°48'0 0.0
2015-Jan-23 23:31N 62°14' W 006°48'0 0.0
2015-Jan-23 22:31N 62°14' W 006°48'0 0.0
2015-Jan-23 21:31N 62°14' W 006°48'0 0.0
2015-Jan-23 20:31N 62°14' W 006°48'0 0.0
2015-Jan-23 19:25N 62°14' W 006°48'0 0.0
2015-Jan-23 18:31N 62°14' W 006°48'0 0.0
2015-Jan-23 17:31N 62°14' W 006°48'0 0.0
2015-Jan-23 16:31N 62°14' W 006°48'0 0.1
2015-Jan-23 15:29N 62°14' W 006°48'0 0.2
2015-Jan-23 14:31N 62°14' W 006°48'0 0.0
2015-Jan-23 13:31N 62°14' W 006°48'0 0.0
2015-Jan-23 12:25N 62°14' W 006°48'0 0.0
2015-Jan-23 11:19N 62°14' W 006°48'0 0.0
2015-Jan-23 10:31N 62°14' W 006°48'0 0.0
2015-Jan-23 09:31N 62°14' W 006°48'0 0.0
2015-Jan-23 08:31N 62°14' W 006°48'0 0.0
2015-Jan-23 07:28N 62°14' W 006°48'0 0.0
2015-Jan-23 06:31N 62°14' W 006°48'0 0.0
2015-Jan-23 05:31N 62°14' W 006°48'0 0.0
2015-Jan-23 04:31N 62°14' W 006°48'0 0.0
2015-Jan-23 03:31N 62°14' W 006°48'0 0.0
2015-Jan-23 02:31N 62°14' W 006°48'0 0.0
2015-Jan-23 01:31N 62°14' W 006°48'0 0.0
2015-Jan-23 00:16N 62°14' W 006°48'0 0.0
2015-Jan-22 23:31N 62°14' W 006°48'0 0.0
2015-Jan-22 22:31N 62°14' W 006°48'0 0.0
2015-Jan-22 21:31N 62°14' W 006°48'0 0.0
2015-Jan-22 20:28N 62°14' W 006°48'0 0.0
2015-Jan-22 19:31N 62°14' W 006°48'0 0.0
2015-Jan-22 18:31N 62°14' W 006°48'0 0.0
2015-Jan-22 17:31N 62°14' W 006°48'0 0.0
2015-Jan-22 16:31N 62°14' W 006°48'0 0.0
2015-Jan-22 15:31N 62°14' W 006°48'0 0.0
2015-Jan-22 14:31N 62°14' W 006°48'0 0.0
2015-Jan-22 13:28N 62°14' W 006°48'0 0.0
2015-Jan-22 12:31N 62°14' W 006°48'0 0.0
2015-Jan-22 11:31N 62°14' W 006°48'0 0.0
2015-Jan-22 10:31N 62°14' W 006°48'0 0.0
2015-Jan-22 09:31N 62°14' W 006°48'0 0.0
2015-Jan-22 08:31N 62°14' W 006°48'0 0.0
2015-Jan-22 07:31N 62°14' W 006°48'0 0.0
2015-Jan-22 06:28N 62°14' W 006°48'0 0.0
2015-Jan-22 05:31N 62°14' W 006°48'0 0.0
2015-Jan-22 04:31N 62°14' W 006°48'0 0.0
2015-Jan-22 03:31N 62°14' W 006°48'0 0.0
2015-Jan-22 02:31N 62°14' W 006°48'0 0.0
2015-Jan-22 01:31N 62°14' W 006°48'0 0.0
2015-Jan-22 00:31N 62°14' W 006°48'0 0.0
2015-Jan-21 23:31N 62°14' W 006°48'0 0.0
2015-Jan-21 22:49N 62°14' W 006°48'0 0.0
2015-Jan-21 22:46N 62°14' W 006°48'0 0.0
2015-Jan-21 22:31N 62°14' W 006°48'0 0.0
2015-Jan-21 20:04N 62°14' W 006°48'0 0.0
2015-Jan-21 19:31N 62°14' W 006°48'0 0.0
2015-Jan-21 18:31N 62°14' W 006°48'0 0.0
2015-Jan-21 17:31N 62°14' W 006°48'0 0.0
2015-Jan-21 16:28N 62°14' W 006°48'1 0.8
2015-Jan-21 15:32N 62°13' W 006°48'0 0.0
2015-Jan-21 14:29N 62°13' W 006°48'4 4.2
2015-Jan-21 13:33N 62°17' W 006°50'0 0.1
2015-Jan-21 11:22N 62°17' W 006°50'3 3.7
2015-Jan-21 10:33N 62°14' W 006°48'0 0.0
2015-Jan-21 09:33N 62°14' W 006°48'0 0.0
2015-Jan-21 08:33N 62°14' W 006°48'0 0.0
2015-Jan-21 07:33N 62°14' W 006°48'0 0.0
2015-Jan-21 06:33N 62°14' W 006°48'0 0.0
2015-Jan-21 05:33N 62°14' W 006°48'0 0.0
2015-Jan-21 04:33N 62°14' W 006°48'0 0.0
2015-Jan-21 03:33N 62°14' W 006°48'0 0.0
2015-Jan-21 02:33N 62°14' W 006°48'0 0.0
2015-Jan-21 01:33N 62°14' W 006°48'0 0.0
2015-Jan-21 00:33N 62°14' W 006°48'0 0.0
2015-Jan-20 23:33N 62°14' W 006°48'0 0.0
2015-Jan-20 22:33N 62°14' W 006°48'0 0.0
2015-Jan-20 21:33N 62°14' W 006°48'0 0.0
2015-Jan-20 20:33N 62°14' W 006°48'0 0.0
2015-Jan-20 19:30N 62°14' W 006°48'0 0.0
2015-Jan-20 18:30N 62°14' W 006°48'0 0.0
2015-Jan-20 17:33N 62°14' W 006°48'0 0.0
2015-Jan-20 16:33N 62°14' W 006°48'0 0.0
2015-Jan-20 15:33N 62°14' W 006°48'0 0.0
2015-Jan-20 14:33N 62°14' W 006°48'0 0.0
2015-Jan-20 13:30N 62°14' W 006°48'0 0.0
2015-Jan-20 12:30N 62°14' W 006°48'0 0.0
2015-Jan-20 11:33N 62°14' W 006°48'0 0.0
2015-Jan-20 10:33N 62°14' W 006°48'0 0.0
2015-Jan-20 09:30N 62°14' W 006°48'0 0.0
2015-Jan-20 08:33N 62°14' W 006°48'0 0.0
2015-Jan-20 07:33N 62°14' W 006°48'0 0.0
2015-Jan-20 06:33N 62°14' W 006°48'0 0.0
2015-Jan-20 05:30N 62°14' W 006°48'0 0.0
2015-Jan-20 04:27N 62°14' W 006°48'0 0.0
2015-Jan-20 03:24N 62°14' W 006°48'0 0.0
2015-Jan-20 02:21N 62°14' W 006°48'0 0.0
2015-Jan-20 01:30N 62°14' W 006°48'0 0.0
2015-Jan-20 00:33N 62°14' W 006°48'0 0.0
2015-Jan-19 23:33N 62°14' W 006°48'5 5.4
2015-Jan-19 22:33N 62°13' W 006°37'5 0.6
2015-Jan-19 15:34N 62°10' W 006°29'7 6.6
2015-Jan-19 14:29N 62°13' W 006°43'3 2.8
2015-Jan-19 13:33N 62°14' W 006°48'0 0.0
2015-Jan-19 12:33N 62°14' W 006°48'1 0.6
2015-Jan-19 11:33N 62°14' W 006°47'4 3.9
2015-Jan-19 10:32N 62°10' W 006°43'3 2.7
2015-Jan-19 09:32N 62°12' W 006°39'5 4.6
2015-Jan-19 08:31N 62°14' W 006°48'0 0.0
2015-Jan-19 07:31N 62°14' W 006°48'0 0.0
2015-Jan-19 06:28N 62°14' W 006°48'0 0.0
2015-Jan-19 05:31N 62°14' W 006°48'0 0.0
2015-Jan-19 04:31N 62°14' W 006°48'0 0.0
2015-Jan-19 03:31N 62°14' W 006°48'0 0.0
2015-Jan-19 02:31N 62°14' W 006°48'0 0.0
2015-Jan-19 01:31N 62°14' W 006°48'0 0.0
2015-Jan-19 00:31N 62°14' W 006°48'0 0.0
2015-Jan-18 23:31N 62°14' W 006°48'0 0.0
2015-Jan-18 22:31N 62°14' W 006°48'0 0.0
2015-Jan-18 21:31N 62°14' W 006°48'0 0.0
2015-Jan-18 20:31N 62°14' W 006°48'0 0.0
2015-Jan-18 19:31N 62°14' W 006°48'0 0.0
2015-Jan-18 18:31N 62°14' W 006°48'0 0.0
2015-Jan-18 17:31N 62°14' W 006°48'0 0.0
2015-Jan-18 16:31N 62°14' W 006°48'0 0.0
2015-Jan-18 15:31N 62°14' W 006°48'0 0.0
2015-Jan-18 14:31N 62°14' W 006°48'0 0.0
2015-Jan-18 13:31N 62°14' W 006°48'0 0.0
2015-Jan-18 12:31N 62°14' W 006°48'0 0.0
2015-Jan-18 11:31N 62°14' W 006°48'0 0.0
2015-Jan-18 10:31N 62°14' W 006°48'0 0.0
2015-Jan-18 09:31N 62°14' W 006°48'  
Track history (hours):
 
Tides and Currents Weather Stations Pressure Air Temp Water Temp Dewpoint Dewpoint Depression Visibility Wind Speed Wind Dir Waves Ship Positions

Hav Tind

Last reported at 2015-Jan-28 08:32 UTC. Time now 2015-Jan-28 09:15 UTC.
Position N 62°14' W 006°48'.

Length 60 m; draft 4 m.

Type: Cargo ship. MMSI: 231565000.

Date/timePositionNaut miles runAvg speedWind from/ knotsBaromVisibWave heightAir tempDewpointWater temp
2015-Jan-28 08:32N 62°14' W 006°48'0 0.0
2015-Jan-28 07:32N 62°14' W 006°48'0 0.0
2015-Jan-28 06:32N 62°14' W 006°48'0 0.0
2015-Jan-28 05:29N 62°14' W 006°48'0 0.0
2015-Jan-28 04:26N 62°14' W 006°48'0 0.0
2015-Jan-28 03:29N 62°14' W 006°48'0 0.0
2015-Jan-28 02:32N 62°14' W 006°48'0 0.0
2015-Jan-28 01:32N 62°14' W 006°48'0 0.0
2015-Jan-28 00:32N 62°14' W 006°48'0 0.0
2015-Jan-27 23:32N 62°14' W 006°48'0 0.0
2015-Jan-27 22:32N 62°14' W 006°48'0 0.0
2015-Jan-27 21:32N 62°14' W 006°48'0 0.0
2015-Jan-27 20:32N 62°14' W 006°48'0 0.0
2015-Jan-27 19:32N 62°14' W 006°48'0 0.0
2015-Jan-27 18:32N 62°14' W 006°48'4 4.1
2015-Jan-27 17:33N 62°13' W 006°40'7 6.8
2015-Jan-27 16:33N 62°11' W 006°27'3 0.4
2015-Jan-27 09:33N 62°10' W 006°33'7 7.3
2015-Jan-27 08:33N 62°14' W 006°47'1 1.0
2015-Jan-27 07:32N 62°14' W 006°48'0 0.0
2015-Jan-27 06:32N 62°14' W 006°48'0 0.0
2015-Jan-27 05:32N 62°14' W 006°48'0 0.0
2015-Jan-27 04:32N 62°14' W 006°48'0 0.0
2015-Jan-27 03:32N 62°14' W 006°48'0 0.0
2015-Jan-27 02:29N 62°14' W 006°48'0 0.0
2015-Jan-27 01:32N 62°14' W 006°48'0 0.0
2015-Jan-27 00:32N 62°14' W 006°48'0 0.0
2015-Jan-26 23:26N 62°14' W 006°48'0 0.0
2015-Jan-26 22:32N 62°14' W 006°48'0 0.0
2015-Jan-26 21:32N 62°14' W 006°48'0 0.0
2015-Jan-26 20:32N 62°14' W 006°48'0 0.0
2015-Jan-26 19:32N 62°14' W 006°48'0 0.0
2015-Jan-26 18:32N 62°14' W 006°48'0 0.0
2015-Jan-26 17:32N 62°14' W 006°48'0 0.0
2015-Jan-26 16:32N 62°14' W 006°48'0 0.0
2015-Jan-26 15:32N 62°14' W 006°48'0 0.0
2015-Jan-26 14:32N 62°14' W 006°48'0 0.2
2015-Jan-26 13:28N 62°14' W 006°48'0 0.0
2015-Jan-26 12:31N 62°14' W 006°48'0 0.4
2015-Jan-26 11:33N 62°14' W 006°48'2 1.2
2015-Jan-26 09:33N 62°13' W 006°43'3 2.4
2015-Jan-26 08:25N 62°14' W 006°48'0 0.0
2015-Jan-26 07:31N 62°14' W 006°48'0 0.0
2015-Jan-26 06:31N 62°14' W 006°48'0 0.0
2015-Jan-26 05:28N 62°14' W 006°48'0 0.0
2015-Jan-26 04:31N 62°14' W 006°48'0 0.0
2015-Jan-26 03:31N 62°14' W 006°48'0 0.0
2015-Jan-26 02:31N 62°14' W 006°48'0 0.0
2015-Jan-26 01:22N 62°14' W 006°48'0 0.0
2015-Jan-26 00:31N 62°14' W 006°48'0 0.0
2015-Jan-25 23:25N 62°14' W 006°48'0 0.0
2015-Jan-25 22:31N 62°14' W 006°48'0 0.0
2015-Jan-25 21:31N 62°14' W 006°48'0 0.0
2015-Jan-25 20:25N 62°14' W 006°48'0 0.0
2015-Jan-25 19:28N 62°14' W 006°48'0 0.0
2015-Jan-25 18:31N 62°14' W 006°48'0 0.0
2015-Jan-25 17:31N 62°14' W 006°48'0 0.0
2015-Jan-25 16:25N 62°14' W 006°48'0 0.0
2015-Jan-25 15:31N 62°14' W 006°48'0 0.0
2015-Jan-25 14:31N 62°14' W 006°48'0 0.0
2015-Jan-25 13:28N 62°14' W 006°48'0 0.0
2015-Jan-25 12:31N 62°14' W 006°48'0 0.0
2015-Jan-25 11:31N 62°14' W 006°48'0 0.0
2015-Jan-25 10:31N 62°14' W 006°48'0 0.0
2015-Jan-25 09:31N 62°14' W 006°48'0 0.0
2015-Jan-25 08:31N 62°14' W 006°48'0 0.0
2015-Jan-25 07:31N 62°14' W 006°48'0 0.0
2015-Jan-25 06:25N 62°14' W 006°48'0 0.0
2015-Jan-25 05:31N 62°14' W 006°48'0 0.0
2015-Jan-25 04:31N 62°14' W 006°48'0 0.0
2015-Jan-25 03:31N 62°14' W 006°48'0 0.0
2015-Jan-25 02:31N 62°14' W 006°48'0 0.0
2015-Jan-25 01:31N 62°14' W 006°48'0 0.0
2015-Jan-25 00:31N 62°14' W 006°48'0 0.0
2015-Jan-24 23:31N 62°14' W 006°48'0 0.0
2015-Jan-24 22:31N 62°14' W 006°48'0 0.0
2015-Jan-24 21:28N 62°14' W 006°48'0 0.0
2015-Jan-24 20:31N 62°14' W 006°48'0 0.0
2015-Jan-24 19:31N 62°14' W 006°48'0 0.0
2015-Jan-24 18:31N 62°14' W 006°48'0 0.0
2015-Jan-24 17:31N 62°14' W 006°48'0 0.0
2015-Jan-24 16:25N 62°14' W 006°48'0 0.0
2015-Jan-24 15:31N 62°14' W 006°48'0 0.0
2015-Jan-24 14:31N 62°14' W 006°48'0 0.0
2015-Jan-24 13:28N 62°14' W 006°48'0 0.0
2015-Jan-24 12:22N 62°14' W 006°48'0 0.0
2015-Jan-24 11:31N 62°14' W 006°48'0 0.0
2015-Jan-24 10:31N 62°14' W 006°48'0 0.0
2015-Jan-24 09:31N 62°14' W 006°48'0 0.0
2015-Jan-24 08:31N 62°14' W 006°48'0 0.0
2015-Jan-24 07:31N 62°14' W 006°48'0 0.0
2015-Jan-24 06:31N 62°14' W 006°48'0 0.0
2015-Jan-24 05:31N 62°14' W 006°48'0 0.0
2015-Jan-24 04:31N 62°14' W 006°48'0 0.0
2015-Jan-24 03:31N 62°14' W 006°48'0 0.0
2015-Jan-24 02:31N 62°14' W 006°48'0 0.0
2015-Jan-24 01:31N 62°14' W 006°48'0 0.0
2015-Jan-24 00:31N 62°14' W 006°48'0 0.0
2015-Jan-23 23:31N 62°14' W 006°48'0 0.0
2015-Jan-23 22:31N 62°14' W 006°48'0 0.0
2015-Jan-23 21:31N 62°14' W 006°48'0 0.0
2015-Jan-23 20:31N 62°14' W 006°48'0 0.0
2015-Jan-23 19:25N 62°14' W 006°48'0 0.0
2015-Jan-23 18:31N 62°14' W 006°48'0 0.0
2015-Jan-23 17:31N 62°14' W 006°48'0 0.0
2015-Jan-23 16:31N 62°14' W 006°48'0 0.1
2015-Jan-23 15:29N 62°14' W 006°48'0 0.2
2015-Jan-23 14:31N 62°14' W 006°48'0 0.0
2015-Jan-23 13:31N 62°14' W 006°48'0 0.0
2015-Jan-23 12:25N 62°14' W 006°48'0 0.0
2015-Jan-23 11:19N 62°14' W 006°48'0 0.0
2015-Jan-23 10:31N 62°14' W 006°48'0 0.0
2015-Jan-23 09:31N 62°14' W 006°48'0 0.0
2015-Jan-23 08:31N 62°14' W 006°48'0 0.0
2015-Jan-23 07:28N 62°14' W 006°48'0 0.0
2015-Jan-23 06:31N 62°14' W 006°48'0 0.0
2015-Jan-23 05:31N 62°14' W 006°48'0 0.0
2015-Jan-23 04:31N 62°14' W 006°48'0 0.0
2015-Jan-23 03:31N 62°14' W 006°48'0 0.0
2015-Jan-23 02:31N 62°14' W 006°48'0 0.0
2015-Jan-23 01:31N 62°14' W 006°48'0 0.0
2015-Jan-23 00:16N 62°14' W 006°48'0 0.0
2015-Jan-22 23:31N 62°14' W 006°48'0 0.0
2015-Jan-22 22:31N 62°14' W 006°48'0 0.0
2015-Jan-22 21:31N 62°14' W 006°48'0 0.0
2015-Jan-22 20:28N 62°14' W 006°48'0 0.0
2015-Jan-22 19:31N 62°14' W 006°48'0 0.0
2015-Jan-22 18:31N 62°14' W 006°48'0 0.0
2015-Jan-22 17:31N 62°14' W 006°48'0 0.0
2015-Jan-22 16:31N 62°14' W 006°48'0 0.0
2015-Jan-22 15:31N 62°14' W 006°48'0 0.0
2015-Jan-22 14:31N 62°14' W 006°48'0 0.0
2015-Jan-22 13:28N 62°14' W 006°48'0 0.0
2015-Jan-22 12:31N 62°14' W 006°48'0 0.0
2015-Jan-22 11:31N 62°14' W 006°48'0 0.0
2015-Jan-22 10:31N 62°14' W 006°48'0 0.0
2015-Jan-22 09:31N 62°14' W 006°48'0 0.0
2015-Jan-22 08:31N 62°14' W 006°48'0 0.0
2015-Jan-22 07:31N 62°14' W 006°48'0 0.0
2015-Jan-22 06:28N 62°14' W 006°48'0 0.0
2015-Jan-22 05:31N 62°14' W 006°48'0 0.0
2015-Jan-22 04:31N 62°14' W 006°48'0 0.0
2015-Jan-22 03:31N 62°14' W 006°48'0 0.0
2015-Jan-22 02:31N 62°14' W 006°48'0 0.0
2015-Jan-22 01:31N 62°14' W 006°48'0 0.0
2015-Jan-22 00:31N 62°14' W 006°48'0 0.0
2015-Jan-21 23:31N 62°14' W 006°48'0 0.0
2015-Jan-21 22:49N 62°14' W 006°48'0 0.0
2015-Jan-21 22:46N 62°14' W 006°48'0 0.0
2015-Jan-21 22:31N 62°14' W 006°48'0 0.0
2015-Jan-21 20:04N 62°14' W 006°48'0 0.0
2015-Jan-21 19:31N 62°14' W 006°48'0 0.0
2015-Jan-21 18:31N 62°14' W 006°48'0 0.0
2015-Jan-21 17:31N 62°14' W 006°48'0 0.0
2015-Jan-21 16:28N 62°14' W 006°48'1 0.8
2015-Jan-21 15:32N 62°13' W 006°48'0 0.0
2015-Jan-21 14:29N 62°13' W 006°48'4 4.2
2015-Jan-21 13:33N 62°17' W 006°50'0 0.1
2015-Jan-21 11:22N 62°17' W 006°50'3 3.7
2015-Jan-21 10:33N 62°14' W 006°48'0 0.0
2015-Jan-21 09:33N 62°14' W 006°48'0 0.0
2015-Jan-21 08:33N 62°14' W 006°48'0 0.0
2015-Jan-21 07:33N 62°14' W 006°48'0 0.0
2015-Jan-21 06:33N 62°14' W 006°48'0 0.0
2015-Jan-21 05:33N 62°14' W 006°48'0 0.0
2015-Jan-21 04:33N 62°14' W 006°48'0 0.0
2015-Jan-21 03:33N 62°14' W 006°48'0 0.0
2015-Jan-21 02:33N 62°14' W 006°48'0 0.0
2015-Jan-21 01:33N 62°14' W 006°48'0 0.0
2015-Jan-21 00:33N 62°14' W 006°48'0 0.0
2015-Jan-20 23:33N 62°14' W 006°48'0 0.0
2015-Jan-20 22:33N 62°14' W 006°48'0 0.0
2015-Jan-20 21:33N 62°14' W 006°48'0 0.0
2015-Jan-20 20:33N 62°14' W 006°48'0 0.0
2015-Jan-20 19:30N 62°14' W 006°48'0 0.0
2015-Jan-20 18:30N 62°14' W 006°48'0 0.0
2015-Jan-20 17:33N 62°14' W 006°48'0 0.0
2015-Jan-20 16:33N 62°14' W 006°48'0 0.0
2015-Jan-20 15:33N 62°14' W 006°48'0 0.0
2015-Jan-20 14:33N 62°14' W 006°48'0 0.0
2015-Jan-20 13:30N 62°14' W 006°48'0 0.0
2015-Jan-20 12:30N 62°14' W 006°48'0 0.0
2015-Jan-20 11:33N 62°14' W 006°48'0 0.0
2015-Jan-20 10:33N 62°14' W 006°48'0 0.0
2015-Jan-20 09:30N 62°14' W 006°48'0 0.0
2015-Jan-20 08:33N 62°14' W 006°48'0 0.0
2015-Jan-20 07:33N 62°14' W 006°48'0 0.0
2015-Jan-20 06:33N 62°14' W 006°48'0 0.0
2015-Jan-20 05:30N 62°14' W 006°48'0 0.0
2015-Jan-20 04:27N 62°14' W 006°48'0 0.0
2015-Jan-20 03:24N 62°14' W 006°48'0 0.0
2015-Jan-20 02:21N 62°14' W 006°48'0 0.0
2015-Jan-20 01:30N 62°14' W 006°48'0 0.0
2015-Jan-20 00:33N 62°14' W 006°48'0 0.0
2015-Jan-19 23:33N 62°14' W 006°48'5 5.4
2015-Jan-19 22:33N 62°13' W 006°37'5 0.6
2015-Jan-19 15:34N 62°10' W 006°29'7 6.6
2015-Jan-19 14:29N 62°13' W 006°43'3 2.8
2015-Jan-19 13:33N 62°14' W 006°48'0 0.0
2015-Jan-19 12:33N 62°14' W 006°48'1 0.6
2015-Jan-19 11:33N 62°14' W 006°47'4 3.9
2015-Jan-19 10:32N 62°10' W 006°43'3 2.7
2015-Jan-19 09:32N 62°12' W 006°39'5 4.6
2015-Jan-19 08:31N 62°14' W 006°48'0 0.0
2015-Jan-19 07:31N 62°14' W 006°48'0 0.0
2015-Jan-19 06:28N 62°14' W 006°48'0 0.0
2015-Jan-19 05:31N 62°14' W 006°48'0 0.0
2015-Jan-19 04:31N 62°14' W 006°48'0 0.0
2015-Jan-19 03:31N 62°14' W 006°48'0 0.0
2015-Jan-19 02:31N 62°14' W 006°48'0 0.0
2015-Jan-19 01:31N 62°14' W 006°48'0 0.0
2015-Jan-19 00:31N 62°14' W 006°48'0 0.0
2015-Jan-18 23:31N 62°14' W 006°48'0 0.0
2015-Jan-18 22:31N 62°14' W 006°48'0 0.0
2015-Jan-18 21:31N 62°14' W 006°48'0 0.0
2015-Jan-18 20:31N 62°14' W 006°48'0 0.0
2015-Jan-18 19:31N 62°14' W 006°48'0 0.0
2015-Jan-18 18:31N 62°14' W 006°48'0 0.0
2015-Jan-18 17:31N 62°14' W 006°48'0 0.0
2015-Jan-18 16:31N 62°14' W 006°48'0 0.0
2015-Jan-18 15:31N 62°14' W 006°48'0 0.0
2015-Jan-18 14:31N 62°14' W 006°48'0 0.0
2015-Jan-18 13:31N 62°14' W 006°48'0 0.0
2015-Jan-18 12:31N 62°14' W 006°48'0 0.0
2015-Jan-18 11:31N 62°14' W 006°48'0 0.0
2015-Jan-18 10:31N 62°14' W 006°48'0 0.0
2015-Jan-18 09:31N 62°14' W 006°48'  

Dump ship's entire track history